Terminal Aerodrome Forecast
Issued by NWS Tampa Bay Area, FL

Home | Current Version | Previous Version | Text Only | Print | Product List | Glossary On
Versions: 1 2 3 4 5 6 7 8 9 10 11 12 13
327
FTUS42 KTBW 232335
TAFFMY
TAF
KFMY 232335Z 2400/2424 06009KT P6SM FEW040 BKN120
     FM240200 06005KT P6SM SCT100 BKN250
     FM241400 08007KT P6SM SCT030 BKN100
     FM241800 07008KT P6SM VCTS SCT030CB BKN050=

USA.gov is the U.S. government's official web portal to all federal, state and local government web resources and services.